sensor_id;sensor_type;location;lat;lon;timestamp;P1;durP1;ratioP1;P2;durP2;ratioP2
7523;SDS011;3803;51.666;7.630;2023-04-23T00:00:11;38.58;;;28.90;;
7523;SDS011;3803;51.666;7.630;2023-04-23T00:00:35;39.22;;;29.70;;
7523;SDS011;3803;51.666;7.630;2023-04-23T00:00:56;38.10;;;29.40;;
7523;SDS011;3803;51.666;7.630;2023-04-23T00:01:23;36.70;;;28.23;;
7523;SDS011;3803;51.666;7.630;2023-04-23T00:01:45;38.10;;;28.63;;
7523;SDS011;3803;51.666;7.630;2023-04-23T00:02:08;39.00;;;29.17;;
7523;SDS011;3803;51.666;7.630;2023-04-23T00:02:31;38.72;;;28.67;;
7523;SDS011;3803;51.666;7.630;2023-04-23T00:02:53;37.67;;;28.58;;
7523;SDS011;3803;51.666;7.630;2023-04-23T00:03:17;39.00;;;28.70;;
7523;SDS011;3803;51.666;7.630;2023-04-23T00:03:40;39.75;;;28.98;;
7523;SDS011;3803;51.666;7.630;2023-04-23T00:04:02;38.97;;;28.25;;
7523;SDS011;3803;51.666;7.630;2023-04-23T00:04:25;38.63;;;28.40;;
7523;SDS011;3803;51.666;7.630;2023-04-23T00:04:50;38.47;;;28.92;;
7523;SDS011;3803;51.666;7.630;2023-04-23T00:05:12;39.55;;;29.45;;
7523;SDS011;3803;51.666;7.630;2023-04-23T00:05:34;38.55;;;29.42;;
7523;SDS011;3803;51.666;7.630;2023-04-23T00:05:56;38.88;;;29.33;;
7523;SDS011;3803;51.666;7.630;2023-04-23T00:06:17;37.53;;;28.48;;
7523;SDS011;3803;51.666;7.630;2023-04-23T00:06:39;39.40;;;28.98;;
7523;SDS011;3803;51.666;7.630;2023-04-23T00:07:02;40.35;;;29.45;;
7523;SDS011;3803;51.666;7.630;2023-04-23T00:07:23;42.35;;;30.02;;
7523;SDS011;3803;51.666;7.630;2023-04-23T00:07:44;42.08;;;29.50;;
7523;SDS011;3803;51.666;7.630;2023-04-23T00:08:05;41.83;;;29.20;;
7523;SDS011;3803;51.666;7.630;2023-04-23T00:08:26;40.60;;;29.00;;
7523;SDS011;3803;51.666;7.630;2023-04-23T00:08:48;40.47;;;29.48;;
7523;SDS011;3803;51.666;7.630;2023-04-23T00:09:12;41.25;;;30.20;;
7523;SDS011;3803;51.666;7.630;2023-04-23T00:09:35;42.83;;;30.92;;
7523;SDS011;3803;51.666;7.630;2023-04-23T00:09:57;42.10;;;31.00;;
7523;SDS011;3803;51.666;7.630;2023-04-23T00:10:19;39.95;;;30.08;;
7523;SDS011;3803;51.666;7.630;2023-04-23T00:10:41;39.70;;;29.58;;
7523;SDS011;3803;51.666;7.630;2023-04-23T00:11:02;39.67;;;29.60;;
7523;SDS011;3803;51.666;7.630;2023-04-23T00:11:22;40.08;;;29.38;;
7523;SDS011;3803;51.666;7.630;2023-04-23T00:11:43;39.20;;;29.00;;
7523;SDS011;3803;51.666;7.630;2023-04-23T00:12:04;38.85;;;29.25;;
7523;SDS011;3803;51.666;7.630;2023-04-23T00:12:27;39.63;;;30.15;;
7523;SDS011;3803;51.666;7.630;2023-04-23T00:12:48;39.30;;;29.27;;
7523;SDS011;3803;51.666;7.630;2023-04-23T00:13:09;39.70;;;29.70;;
7523;SDS011;3803;51.666;7.630;2023-04-23T00:13:30;39.50;;;29.83;;
7523;SDS011;3803;51.666;7.630;2023-04-23T00:13:51;40.47;;;30.90;;
7523;SDS011;3803;51.666;7.630;2023-04-23T00:14:12;42.67;;;31.30;;
7523;SDS011;3803;51.666;7.630;2023-04-23T00:14:42;42.97;;;30.98;;
7523;SDS011;3803;51.666;7.630;2023-04-23T00:15:03;41.45;;;29.90;;
7523;SDS011;3803;51.666;7.630;2023-04-23T00:15:26;41.20;;;30.23;;
7523;SDS011;3803;51.666;7.630;2023-04-23T00:15:47;42.40;;;30.42;;
7523;SDS011;3803;51.666;7.630;2023-04-23T00:16:08;42.53;;;30.25;;
7523;SDS011;3803;51.666;7.630;2023-04-23T00:16:30;43.08;;;30.30;;
7523;SDS011;3803;51.666;7.630;2023-04-23T00:16:51;41.10;;;29.90;;
7523;SDS011;3803;51.666;7.630;2023-04-23T00:17:12;41.90;;;30.35;;
7523;SDS011;3803;51.666;7.630;2023-04-23T00:17:33;42.03;;;29.50;;
7523;SDS011;3803;51.666;7.630;2023-04-23T00:17:53;42.60;;;29.70;;
7523;SDS011;3803;51.666;7.630;2023-04-23T00:18:14;41.17;;;29.70;;
7523;SDS011;3803;51.666;7.630;2023-04-23T00:18:36;42.80;;;30.50;;
7523;SDS011;3803;51.666;7.630;2023-04-23T00:18:57;42.90;;;30.60;;
7523;SDS011;3803;51.666;7.630;2023-04-23T00:19:17;45.47;;;31.20;;
7523;SDS011;3803;51.666;7.630;2023-04-23T00:19:38;44.40;;;30.80;;
7523;SDS011;3803;51.666;7.630;2023-04-23T00:19:58;44.47;;;30.47;;
7523;SDS011;3803;51.666;7.630;2023-04-23T00:20:19;40.80;;;29.60;;
7523;SDS011;3803;51.666;7.630;2023-04-23T00:20:40;39.00;;;28.75;;
7523;SDS011;3803;51.666;7.630;2023-04-23T00:21:00;41.17;;;30.17;;
7523;SDS011;3803;51.666;7.630;2023-04-23T00:21:21;41.78;;;30.48;;
7523;SDS011;3803;51.666;7.630;2023-04-23T00:21:42;41.45;;;30.42;;
7523;SDS011;3803;51.666;7.630;2023-04-23T00:22:03;40.57;;;30.13;;
7523;SDS011;3803;51.666;7.630;2023-04-23T00:22:24;41.25;;;29.92;;
7523;SDS011;3803;51.666;7.630;2023-04-23T00:22:44;43.58;;;30.75;;
7523;SDS011;3803;51.666;7.630;2023-04-23T00:23:05;43.57;;;30.47;;
7523;SDS011;3803;51.666;7.630;2023-04-23T00:23:26;43.03;;;30.13;;
7523;SDS011;3803;51.666;7.630;2023-04-23T00:23:48;42.22;;;29.52;;
7523;SDS011;3803;51.666;7.630;2023-04-23T00:24:08;44.17;;;30.23;;
7523;SDS011;3803;51.666;7.630;2023-04-23T00:24:29;44.53;;;30.98;;
7523;SDS011;3803;51.666;7.630;2023-04-23T00:24:51;43.85;;;30.90;;
7523;SDS011;3803;51.666;7.630;2023-04-23T00:25:11;42.17;;;30.07;;
7523;SDS011;3803;51.666;7.630;2023-04-23T00:25:32;42.30;;;30.13;;
7523;SDS011;3803;51.666;7.630;2023-04-23T00:25:53;43.45;;;30.45;;
7523;SDS011;3803;51.666;7.630;2023-04-23T00:26:13;45.70;;;31.60;;
7523;SDS011;3803;51.666;7.630;2023-04-23T00:26:34;46.78;;;32.17;;
7523;SDS011;3803;51.666;7.630;2023-04-23T00:26:54;48.90;;;33.30;;
7523;SDS011;3803;51.666;7.630;2023-04-23T00:27:15;46.83;;;32.38;;
7523;SDS011;3803;51.666;7.630;2023-04-23T00:27:37;47.50;;;31.70;;
7523;SDS011;3803;51.666;7.630;2023-04-23T00:27:58;45.80;;;30.80;;
7523;SDS011;3803;51.666;7.630;2023-04-23T00:28:18;45.70;;;31.13;;
7523;SDS011;3803;51.666;7.630;2023-04-23T00:28:40;43.10;;;31.00;;
7523;SDS011;3803;51.666;7.630;2023-04-23T00:29:00;42.60;;;30.60;;
7523;SDS011;3803;51.666;7.630;2023-04-23T00:29:22;42.90;;;31.05;;
7523;SDS011;3803;51.666;7.630;2023-04-23T00:29:43;42.23;;;30.07;;
7523;SDS011;3803;51.666;7.630;2023-04-23T00:30:05;43.13;;;30.63;;
7523;SDS011;3803;51.666;7.630;2023-04-23T00:30:27;43.33;;;30.65;;
7523;SDS011;3803;51.666;7.630;2023-04-23T00:30:48;45.28;;;31.85;;
7523;SDS011;3803;51.666;7.630;2023-04-23T00:31:09;45.30;;;31.90;;
7523;SDS011;3803;51.666;7.630;2023-04-23T00:31:29;45.35;;;32.35;;
7523;SDS011;3803;51.666;7.630;2023-04-23T00:31:50;44.03;;;31.83;;
7523;SDS011;3803;51.666;7.630;2023-04-23T00:32:11;42.80;;;30.93;;
7523;SDS011;3803;51.666;7.630;2023-04-23T00:32:31;42.05;;;30.10;;
7523;SDS011;3803;51.666;7.630;2023-04-23T00:32:52;42.60;;;29.77;;
7523;SDS011;3803;51.666;7.630;2023-04-23T00:33:13;42.17;;;29.60;;
7523;SDS011;3803;51.666;7.630;2023-04-23T00:33:34;42.42;;;29.75;;
7523;SDS011;3803;51.666;7.630;2023-04-23T00:33:54;41.90;;;29.73;;
7523;SDS011;3803;51.666;7.630;2023-04-23T00:34:15;43.22;;;30.90;;
7523;SDS011;3803;51.666;7.630;2023-04-23T00:34:36;44.05;;;30.90;;
7523;SDS011;3803;51.666;7.630;2023-04-23T00:34:57;45.92;;;32.47;;
7523;SDS011;3803;51.666;7.630;2023-04-23T00:35:17;44.83;;;31.27;;
7523;SDS011;3803;51.666;7.630;2023-04-23T00:35:39;44.55;;;31.65;;
7523;SDS011;3803;51.666;7.630;2023-04-23T00:36:00;46.33;;;31.63;;
7523;SDS011;3803;51.666;7.630;2023-04-23T00:36:21;46.13;;;32.10;;
7523;SDS011;3803;51.666;7.630;2023-04-23T00:36:43;45.13;;;31.70;;
7523;SDS011;3803;51.666;7.630;2023-04-23T00:37:03;43.97;;;31.27;;
7523;SDS011;3803;51.666;7.630;2023-04-23T00:37:26;44.95;;;31.52;;
7523;SDS011;3803;51.666;7.630;2023-04-23T00:37:46;44.75;;;31.25;;
7523;SDS011;3803;51.666;7.630;2023-04-23T00:38:07;44.23;;;31.03;;
7523;SDS011;3803;51.666;7.630;2023-04-23T00:38:28;45.23;;;31.60;;
7523;SDS011;3803;51.666;7.630;2023-04-23T00:38:48;48.33;;;32.08;;
7523;SDS011;3803;51.666;7.630;2023-04-23T00:39:09;47.33;;;32.03;;
7523;SDS011;3803;51.666;7.630;2023-04-23T00:39:31;44.10;;;31.65;;
7523;SDS011;3803;51.666;7.630;2023-04-23T00:39:52;42.75;;;31.88;;
7523;SDS011;3803;51.666;7.630;2023-04-23T00:40:13;45.73;;;32.77;;
7523;SDS011;3803;51.666;7.630;2023-04-23T00:40:33;46.03;;;32.43;;
7523;SDS011;3803;51.666;7.630;2023-04-23T00:40:54;45.53;;;32.35;;
7523;SDS011;3803;51.666;7.630;2023-04-23T00:41:15;43.85;;;31.90;;
7523;SDS011;3803;51.666;7.630;2023-04-23T00:41:36;46.40;;;32.10;;
7523;SDS011;3803;51.666;7.630;2023-04-23T00:42:43;45.83;;;32.60;;
7523;SDS011;3803;51.666;7.630;2023-04-23T00:43:05;46.17;;;32.50;;
7523;SDS011;3803;51.666;7.630;2023-04-23T00:43:26;45.63;;;31.90;;
7523;SDS011;3803;51.666;7.630;2023-04-23T00:43:47;46.47;;;32.05;;
7523;SDS011;3803;51.666;7.630;2023-04-23T00:44:11;46.78;;;31.90;;
7523;SDS011;3803;51.666;7.630;2023-04-23T00:44:32;46.53;;;32.45;;
7523;SDS011;3803;51.666;7.630;2023-04-23T00:44:54;46.22;;;32.72;;
7523;SDS011;3803;51.666;7.630;2023-04-23T00:45:16;47.10;;;33.03;;
7523;SDS011;3803;51.666;7.630;2023-04-23T00:45:37;46.97;;;32.67;;
7523;SDS011;3803;51.666;7.630;2023-04-23T00:45:58;46.55;;;31.90;;
7523;SDS011;3803;51.666;7.630;2023-04-23T00:46:19;45.17;;;31.37;;
7523;SDS011;3803;51.666;7.630;2023-04-23T00:46:40;44.72;;;31.27;;
7523;SDS011;3803;51.666;7.630;2023-04-23T00:47:01;43.53;;;31.27;;
7523;SDS011;3803;51.666;7.630;2023-04-23T00:47:22;45.22;;;32.13;;
7523;SDS011;3803;51.666;7.630;2023-04-23T00:47:43;45.03;;;32.20;;
7523;SDS011;3803;51.666;7.630;2023-04-23T00:48:05;46.72;;;32.92;;
7523;SDS011;3803;51.666;7.630;2023-04-23T00:48:26;46.50;;;33.13;;
7523;SDS011;3803;51.666;7.630;2023-04-23T00:48:48;46.63;;;32.53;;
7523;SDS011;3803;51.666;7.630;2023-04-23T00:49:10;45.42;;;31.55;;
7523;SDS011;3803;51.666;7.630;2023-04-23T00:49:34;46.00;;;31.60;;
7523;SDS011;3803;51.666;7.630;2023-04-23T00:49:55;45.67;;;32.42;;
7523;SDS011;3803;51.666;7.630;2023-04-23T00:50:18;46.30;;;33.00;;
7523;SDS011;3803;51.666;7.630;2023-04-23T00:50:40;48.47;;;33.72;;
7523;SDS011;3803;51.666;7.630;2023-04-23T00:51:04;48.40;;;33.83;;
7523;SDS011;3803;51.666;7.630;2023-04-23T00:51:25;48.92;;;33.85;;
7523;SDS011;3803;51.666;7.630;2023-04-23T00:51:47;48.83;;;33.15;;
7523;SDS011;3803;51.666;7.630;2023-04-23T00:52:08;48.07;;;33.10;;
7523;SDS011;3803;51.666;7.630;2023-04-23T00:52:28;46.55;;;33.08;;
7523;SDS011;3803;51.666;7.630;2023-04-23T00:52:50;46.85;;;32.90;;
7523;SDS011;3803;51.666;7.630;2023-04-23T00:53:11;47.38;;;33.53;;
7523;SDS011;3803;51.666;7.630;2023-04-23T00:53:32;46.72;;;32.38;;
7523;SDS011;3803;51.666;7.630;2023-04-23T00:53:53;45.45;;;31.75;;
7523;SDS011;3803;51.666;7.630;2023-04-23T00:54:15;47.20;;;32.17;;
7523;SDS011;3803;51.666;7.630;2023-04-23T00:54:36;47.63;;;32.40;;
7523;SDS011;3803;51.666;7.630;2023-04-23T00:54:56;46.53;;;32.13;;
7523;SDS011;3803;51.666;7.630;2023-04-23T00:55:17;43.67;;;31.35;;
7523;SDS011;3803;51.666;7.630;2023-04-23T00:55:40;43.80;;;32.00;;
7523;SDS011;3803;51.666;7.630;2023-04-23T00:56:01;44.85;;;32.88;;
7523;SDS011;3803;51.666;7.630;2023-04-23T00:56:24;46.20;;;32.80;;
7523;SDS011;3803;51.666;7.630;2023-04-23T00:56:46;45.53;;;32.38;;
7523;SDS011;3803;51.666;7.630;2023-04-23T00:57:07;45.03;;;31.70;;
7523;SDS011;3803;51.666;7.630;2023-04-23T00:57:28;43.28;;;30.80;;
7523;SDS011;3803;51.666;7.630;2023-04-23T00:57:49;45.70;;;31.37;;
7523;SDS011;3803;51.666;7.630;2023-04-23T00:58:10;46.08;;;31.40;;
7523;SDS011;3803;51.666;7.630;2023-04-23T00:58:31;47.70;;;31.70;;
7523;SDS011;3803;51.666;7.630;2023-04-23T00:58:52;46.13;;;31.42;;
7523;SDS011;3803;51.666;7.630;2023-04-23T00:59:14;47.38;;;31.90;;
7523;SDS011;3803;51.666;7.630;2023-04-23T00:59:35;46.83;;;32.53;;
7523;SDS011;3803;51.666;7.630;2023-04-23T00:59:55;49.65;;;33.35;;
7523;SDS011;3803;51.666;7.630;2023-04-23T01:00:17;48.67;;;33.63;;
7523;SDS011;3803;51.666;7.630;2023-04-23T01:00:40;48.80;;;33.90;;
7523;SDS011;3803;51.666;7.630;2023-04-23T01:01:52;49.17;;;33.63;;
7523;SDS011;3803;51.666;7.630;2023-04-23T01:02:13;48.22;;;33.40;;
7523;SDS011;3803;51.666;7.630;2023-04-23T01:02:34;48.47;;;33.28;;
7523;SDS011;3803;51.666;7.630;2023-04-23T01:02:56;48.13;;;33.38;;
7523;SDS011;3803;51.666;7.630;2023-04-23T01:03:17;49.45;;;33.75;;
7523;SDS011;3803;51.666;7.630;2023-04-23T01:03:41;50.90;;;34.45;;
7523;SDS011;3803;51.666;7.630;2023-04-23T01:04:02;51.67;;;34.63;;
7523;SDS011;3803;51.666;7.630;2023-04-23T01:04:23;52.30;;;34.45;;
7523;SDS011;3803;51.666;7.630;2023-04-23T01:04:46;49.90;;;33.15;;
7523;SDS011;3803;51.666;7.630;2023-04-23T01:05:11;47.78;;;33.17;;
7523;SDS011;3803;51.666;7.630;2023-04-23T01:05:35;50.47;;;34.45;;
7523;SDS011;3803;51.666;7.630;2023-04-23T01:05:55;50.80;;;34.53;;
7523;SDS011;3803;51.666;7.630;2023-04-23T01:06:17;50.60;;;34.85;;
7523;SDS011;3803;51.666;7.630;2023-04-23T01:06:39;50.42;;;34.63;;
7523;SDS011;3803;51.666;7.630;2023-04-23T01:07:00;53.53;;;35.55;;
7523;SDS011;3803;51.666;7.630;2023-04-23T01:07:24;52.42;;;34.60;;
7523;SDS011;3803;51.666;7.630;2023-04-23T01:07:46;50.15;;;34.03;;
7523;SDS011;3803;51.666;7.630;2023-04-23T01:08:07;49.07;;;34.07;;
7523;SDS011;3803;51.666;7.630;2023-04-23T01:08:30;51.88;;;34.47;;
7523;SDS011;3803;51.666;7.630;2023-04-23T01:08:51;51.83;;;34.30;;
7523;SDS011;3803;51.666;7.630;2023-04-23T01:09:12;51.10;;;33.58;;
7523;SDS011;3803;51.666;7.630;2023-04-23T01:09:35;48.35;;;33.13;;
7523;SDS011;3803;51.666;7.630;2023-04-23T01:09:55;47.80;;;32.70;;
7523;SDS011;3803;51.666;7.630;2023-04-23T01:10:16;48.40;;;33.20;;
7523;SDS011;3803;51.666;7.630;2023-04-23T01:10:38;47.50;;;32.72;;
7523;SDS011;3803;51.666;7.630;2023-04-23T01:10:58;48.93;;;33.10;;
7523;SDS011;3803;51.666;7.630;2023-04-23T01:11:19;48.20;;;32.65;;
7523;SDS011;3803;51.666;7.630;2023-04-23T01:11:41;50.60;;;33.40;;
7523;SDS011;3803;51.666;7.630;2023-04-23T01:12:04;48.78;;;33.30;;
7523;SDS011;3803;51.666;7.630;2023-04-23T01:12:25;51.47;;;34.05;;
7523;SDS011;3803;51.666;7.630;2023-04-23T01:12:46;48.93;;;33.20;;
7523;SDS011;3803;51.666;7.630;2023-04-23T01:13:08;51.28;;;33.47;;
7523;SDS011;3803;51.666;7.630;2023-04-23T01:13:28;50.53;;;32.60;;
7523;SDS011;3803;51.666;7.630;2023-04-23T01:13:49;52.38;;;33.75;;
7523;SDS011;3803;51.666;7.630;2023-04-23T01:14:10;52.87;;;33.70;;
7523;SDS011;3803;51.666;7.630;2023-04-23T01:14:31;51.90;;;34.10;;
7523;SDS011;3803;51.666;7.630;2023-04-23T01:14:52;50.30;;;33.53;;
7523;SDS011;3803;51.666;7.630;2023-04-23T01:15:13;49.83;;;33.43;;
7523;SDS011;3803;51.666;7.630;2023-04-23T01:15:33;50.55;;;33.88;;
7523;SDS011;3803;51.666;7.630;2023-04-23T01:15:55;48.88;;;33.72;;
7523;SDS011;3803;51.666;7.630;2023-04-23T01:16:17;48.28;;;33.33;;
7523;SDS011;3803;51.666;7.630;2023-04-23T01:16:38;46.92;;;32.88;;
7523;SDS011;3803;51.666;7.630;2023-04-23T01:16:58;47.80;;;32.30;;
7523;SDS011;3803;51.666;7.630;2023-04-23T01:17:20;46.20;;;31.55;;
7523;SDS011;3803;51.666;7.630;2023-04-23T01:17:42;46.92;;;32.15;;
7523;SDS011;3803;51.666;7.630;2023-04-23T01:18:02;46.50;;;32.77;;
7523;SDS011;3803;51.666;7.630;2023-04-23T01:18:25;47.28;;;33.40;;
7523;SDS011;3803;51.666;7.630;2023-04-23T01:18:46;48.85;;;33.60;;
7523;SDS011;3803;51.666;7.630;2023-04-23T01:19:08;49.97;;;34.00;;
7523;SDS011;3803;51.666;7.630;2023-04-23T01:19:29;51.10;;;34.65;;
7523;SDS011;3803;51.666;7.630;2023-04-23T01:19:50;50.27;;;34.00;;
7523;SDS011;3803;51.666;7.630;2023-04-23T01:20:11;51.63;;;34.00;;
7523;SDS011;3803;51.666;7.630;2023-04-23T01:20:32;50.72;;;33.95;;
7523;SDS011;3803;51.666;7.630;2023-04-23T01:20:54;53.90;;;35.40;;
7523;SDS011;3803;51.666;7.630;2023-04-23T01:21:15;52.38;;;35.45;;
7523;SDS011;3803;51.666;7.630;2023-04-23T01:21:37;53.58;;;35.40;;
7523;SDS011;3803;51.666;7.630;2023-04-23T01:22:01;53.53;;;35.20;;
7523;SDS011;3803;51.666;7.630;2023-04-23T01:22:22;54.42;;;35.35;;
7523;SDS011;3803;51.666;7.630;2023-04-23T01:22:43;53.53;;;35.63;;
7523;SDS011;3803;51.666;7.630;2023-04-23T01:23:04;52.37;;;34.90;;
7523;SDS011;3803;51.666;7.630;2023-04-23T01:23:25;50.75;;;34.55;;
7523;SDS011;3803;51.666;7.630;2023-04-23T01:23:46;51.35;;;34.42;;
7523;SDS011;3803;51.666;7.630;2023-04-23T01:24:07;51.95;;;34.90;;
7523;SDS011;3803;51.666;7.630;2023-04-23T01:24:30;51.33;;;35.10;;
7523;SDS011;3803;51.666;7.630;2023-04-23T01:24:51;50.78;;;34.92;;
7523;SDS011;3803;51.666;7.630;2023-04-23T01:25:13;51.47;;;35.60;;
7523;SDS011;3803;51.666;7.630;2023-04-23T01:25:33;52.28;;;35.45;;
7523;SDS011;3803;51.666;7.630;2023-04-23T01:25:54;54.47;;;35.63;;
7523;SDS011;3803;51.666;7.630;2023-04-23T01:26:15;55.30;;;35.67;;
7523;SDS011;3803;51.666;7.630;2023-04-23T01:26:38;54.35;;;35.17;;
7523;SDS011;3803;51.666;7.630;2023-04-23T01:26:59;53.17;;;35.45;;
7523;SDS011;3803;51.666;7.630;2023-04-23T01:27:24;53.15;;;34.90;;
7523;SDS011;3803;51.666;7.630;2023-04-23T01:27:45;54.97;;;35.67;;
7523;SDS011;3803;51.666;7.630;2023-04-23T01:28:06;53.90;;;35.10;;
7523;SDS011;3803;51.666;7.630;2023-04-23T01:28:32;52.33;;;34.08;;
7523;SDS011;3803;51.666;7.630;2023-04-23T01:28:54;53.20;;;34.50;;
7523;SDS011;3803;51.666;7.630;2023-04-23T01:29:14;53.88;;;34.83;;
7523;SDS011;3803;51.666;7.630;2023-04-23T01:29:36;53.55;;;34.60;;
7523;SDS011;3803;51.666;7.630;2023-04-23T01:29:58;53.45;;;34.25;;
7523;SDS011;3803;51.666;7.630;2023-04-23T01:30:19;55.78;;;34.97;;
7523;SDS011;3803;51.666;7.630;2023-04-23T01:30:41;55.15;;;35.50;;
7523;SDS011;3803;51.666;7.630;2023-04-23T01:31:03;54.17;;;36.17;;
7523;SDS011;3803;51.666;7.630;2023-04-23T01:31:33;53.55;;;36.20;;
7523;SDS011;3803;51.666;7.630;2023-04-23T01:31:54;53.72;;;35.63;;
7523;SDS011;3803;51.666;7.630;2023-04-23T01:32:16;53.38;;;35.05;;
7523;SDS011;3803;51.666;7.630;2023-04-23T01:32:37;53.10;;;34.95;;
7523;SDS011;3803;51.666;7.630;2023-04-23T01:32:59;56.40;;;36.20;;
7523;SDS011;3803;51.666;7.630;2023-04-23T01:33:21;55.22;;;36.08;;
7523;SDS011;3803;51.666;7.630;2023-04-23T01:33:43;56.47;;;36.30;;
7523;SDS011;3803;51.666;7.630;2023-04-23T01:34:04;52.92;;;35.03;;
7523;SDS011;3803;51.666;7.630;2023-04-23T01:34:41;52.53;;;35.05;;
7523;SDS011;3803;51.666;7.630;2023-04-23T01:35:02;55.72;;;35.50;;
7523;SDS011;3803;51.666;7.630;2023-04-23T01:35:24;56.03;;;35.70;;
7523;SDS011;3803;51.666;7.630;2023-04-23T01:35:45;54.17;;;34.88;;
7523;SDS011;3803;51.666;7.630;2023-04-23T01:36:08;53.70;;;35.17;;
7523;SDS011;3803;51.666;7.630;2023-04-23T01:36:30;53.83;;;35.08;;
7523;SDS011;3803;51.666;7.630;2023-04-23T01:36:51;54.35;;;34.90;;
7523;SDS011;3803;51.666;7.630;2023-04-23T01:37:13;55.97;;;34.50;;
7523;SDS011;3803;51.666;7.630;2023-04-23T01:37:35;56.60;;;35.30;;
7523;SDS011;3803;51.666;7.630;2023-04-23T01:37:58;56.25;;;36.00;;
7523;SDS011;3803;51.666;7.630;2023-04-23T01:38:21;55.42;;;36.78;;
7523;SDS011;3803;51.666;7.630;2023-04-23T01:38:42;52.75;;;35.80;;
7523;SDS011;3803;51.666;7.630;2023-04-23T01:39:03;51.72;;;35.60;;
7523;SDS011;3803;51.666;7.630;2023-04-23T01:39:25;51.35;;;35.28;;
7523;SDS011;3803;51.666;7.630;2023-04-23T01:39:45;52.67;;;35.47;;
7523;SDS011;3803;51.666;7.630;2023-04-23T01:40:06;54.47;;;35.60;;
7523;SDS011;3803;51.666;7.630;2023-04-23T01:40:27;55.25;;;34.97;;
7523;SDS011;3803;51.666;7.630;2023-04-23T01:40:48;56.47;;;35.37;;
7523;SDS011;3803;51.666;7.630;2023-04-23T01:41:08;56.28;;;35.67;;
7523;SDS011;3803;51.666;7.630;2023-04-23T01:41:29;57.08;;;36.92;;
7523;SDS011;3803;51.666;7.630;2023-04-23T01:41:50;56.22;;;36.25;;
7523;SDS011;3803;51.666;7.630;2023-04-23T01:42:12;56.85;;;36.00;;
7523;SDS011;3803;51.666;7.630;2023-04-23T01:42:33;55.70;;;35.47;;
7523;SDS011;3803;51.666;7.630;2023-04-23T01:42:53;57.15;;;36.35;;
7523;SDS011;3803;51.666;7.630;2023-04-23T01:43:16;55.78;;;36.90;;
7523;SDS011;3803;51.666;7.630;2023-04-23T01:43:36;55.47;;;36.72;;
7523;SDS011;3803;51.666;7.630;2023-04-23T01:43:59;52.72;;;36.03;;
7523;SDS011;3803;51.666;7.630;2023-04-23T01:44:20;52.08;;;35.67;;
7523;SDS011;3803;51.666;7.630;2023-04-23T01:44:41;54.43;;;36.47;;
7523;SDS011;3803;51.666;7.630;2023-04-23T01:45:02;55.05;;;36.25;;
7523;SDS011;3803;51.666;7.630;2023-04-23T01:45:23;56.83;;;37.03;;
7523;SDS011;3803;51.666;7.630;2023-04-23T01:45:43;55.47;;;36.30;;
7523;SDS011;3803;51.666;7.630;2023-04-23T01:46:04;55.13;;;35.95;;
7523;SDS011;3803;51.666;7.630;2023-04-23T01:46:25;54.22;;;35.25;;
7523;SDS011;3803;51.666;7.630;2023-04-23T01:46:46;54.30;;;35.75;;
7523;SDS011;3803;51.666;7.630;2023-04-23T01:47:07;54.65;;;35.63;;
7523;SDS011;3803;51.666;7.630;2023-04-23T01:47:28;54.00;;;35.20;;
7523;SDS011;3803;51.666;7.630;2023-04-23T01:47:49;54.60;;;35.08;;
7523;SDS011;3803;51.666;7.630;2023-04-23T01:48:09;55.67;;;35.80;;
7523;SDS011;3803;51.666;7.630;2023-04-23T01:48:30;56.67;;;36.80;;
7523;SDS011;3803;51.666;7.630;2023-04-23T01:48:51;57.28;;;37.10;;
7523;SDS011;3803;51.666;7.630;2023-04-23T01:49:12;59.17;;;37.58;;
7523;SDS011;3803;51.666;7.630;2023-04-23T01:49:33;60.53;;;37.42;;
7523;SDS011;3803;51.666;7.630;2023-04-23T01:49:54;57.28;;;36.45;;
7523;SDS011;3803;51.666;7.630;2023-04-23T01:50:15;56.40;;;36.47;;
7523;SDS011;3803;51.666;7.630;2023-04-23T01:50:36;57.57;;;37.17;;
7523;SDS011;3803;51.666;7.630;2023-04-23T01:50:56;58.63;;;37.75;;
7523;SDS011;3803;51.666;7.630;2023-04-23T01:51:17;55.60;;;36.63;;
7523;SDS011;3803;51.666;7.630;2023-04-23T01:51:38;54.72;;;36.08;;
7523;SDS011;3803;51.666;7.630;2023-04-23T01:51:59;56.55;;;36.15;;
7523;SDS011;3803;51.666;7.630;2023-04-23T01:52:19;55.83;;;35.70;;
7523;SDS011;3803;51.666;7.630;2023-04-23T01:52:40;54.78;;;35.35;;
7523;SDS011;3803;51.666;7.630;2023-04-23T01:53:01;55.90;;;35.58;;
7523;SDS011;3803;51.666;7.630;2023-04-23T01:53:22;56.90;;;36.08;;
7523;SDS011;3803;51.666;7.630;2023-04-23T01:53:42;57.70;;;36.90;;
7523;SDS011;3803;51.666;7.630;2023-04-23T01:54:03;56.10;;;36.72;;
7523;SDS011;3803;51.666;7.630;2023-04-23T01:54:24;58.10;;;37.40;;
7523;SDS011;3803;51.666;7.630;2023-04-23T01:54:45;56.78;;;37.17;;
7523;SDS011;3803;51.666;7.630;2023-04-23T01:55:05;55.67;;;36.92;;
7523;SDS011;3803;51.666;7.630;2023-04-23T01:55:27;57.22;;;37.45;;
7523;SDS011;3803;51.666;7.630;2023-04-23T01:55:47;56.22;;;36.90;;
7523;SDS011;3803;51.666;7.630;2023-04-23T01:56:10;56.63;;;37.00;;
7523;SDS011;3803;51.666;7.630;2023-04-23T01:56:32;56.25;;;37.40;;
7523;SDS011;3803;51.666;7.630;2023-04-23T01:56:54;60.75;;;38.13;;
7523;SDS011;3803;51.666;7.630;2023-04-23T01:57:16;63.47;;;38.83;;
7523;SDS011;3803;51.666;7.630;2023-04-23T01:57:43;62.78;;;38.90;;
7523;SDS011;3803;51.666;7.630;2023-04-23T01:58:05;60.95;;;38.33;;
7523;SDS011;3803;51.666;7.630;2023-04-23T01:58:25;62.57;;;38.67;;
7523;SDS011;3803;51.666;7.630;2023-04-23T01:58:47;62.10;;;38.03;;
7523;SDS011;3803;51.666;7.630;2023-04-23T01:59:08;62.20;;;38.90;;
7523;SDS011;3803;51.666;7.630;2023-04-23T01:59:28;60.30;;;39.00;;
7523;SDS011;3803;51.666;7.630;2023-04-23T01:59:49;61.70;;;39.95;;
7523;SDS011;3803;51.666;7.630;2023-04-23T02:00:10;66.05;;;40.67;;
7523;SDS011;3803;51.666;7.630;2023-04-23T02:00:35;64.10;;;39.53;;
7523;SDS011;3803;51.666;7.630;2023-04-23T02:00:56;62.42;;;38.58;;
7523;SDS011;3803;51.666;7.630;2023-04-23T02:01:16;63.60;;;38.67;;
7523;SDS011;3803;51.666;7.630;2023-04-23T02:01:43;64.77;;;39.30;;
7523;SDS011;3803;51.666;7.630;2023-04-23T02:02:05;64.85;;;39.03;;
7523;SDS011;3803;51.666;7.630;2023-04-23T02:02:30;64.90;;;39.60;;
7523;SDS011;3803;51.666;7.630;2023-04-23T02:02:50;65.10;;;38.85;;
7523;SDS011;3803;51.666;7.630;2023-04-23T02:03:13;64.65;;;39.65;;
7523;SDS011;3803;51.666;7.630;2023-04-23T02:03:34;62.47;;;38.92;;
7523;SDS011;3803;51.666;7.630;2023-04-23T02:03:54;60.40;;;38.60;;
7523;SDS011;3803;51.666;7.630;2023-04-23T02:04:16;59.88;;;37.40;;
7523;SDS011;3803;51.666;7.630;2023-04-23T02:04:37;61.53;;;37.58;;
7523;SDS011;3803;51.666;7.630;2023-04-23T02:04:58;63.40;;;38.55;;
7523;SDS011;3803;51.666;7.630;2023-04-23T02:05:23;62.72;;;38.45;;
7523;SDS011;3803;51.666;7.630;2023-04-23T02:05:45;61.05;;;37.85;;
7523;SDS011;3803;51.666;7.630;2023-04-23T02:06:05;62.33;;;38.00;;
7523;SDS011;3803;51.666;7.630;2023-04-23T02:06:26;65.63;;;38.90;;
7523;SDS011;3803;51.666;7.630;2023-04-23T02:06:48;67.20;;;38.90;;
7523;SDS011;3803;51.666;7.630;2023-04-23T02:07:11;68.90;;;39.90;;
7523;SDS011;3803;51.666;7.630;2023-04-23T02:07:31;70.30;;;40.50;;
7523;SDS011;3803;51.666;7.630;2023-04-23T02:07:53;72.43;;;42.10;;
7523;SDS011;3803;51.666;7.630;2023-04-23T02:08:14;70.18;;;40.90;;
7523;SDS011;3803;51.666;7.630;2023-04-23T02:08:34;68.47;;;40.70;;
7523;SDS011;3803;51.666;7.630;2023-04-23T02:08:55;65.83;;;40.00;;
7523;SDS011;3803;51.666;7.630;2023-04-23T02:09:16;67.57;;;40.92;;
7523;SDS011;3803;51.666;7.630;2023-04-23T02:09:37;67.78;;;40.28;;
7523;SDS011;3803;51.666;7.630;2023-04-23T02:09:59;68.10;;;40.30;;
7523;SDS011;3803;51.666;7.630;2023-04-23T02:10:21;68.18;;;40.97;;
7523;SDS011;3803;51.666;7.630;2023-04-23T02:10:42;68.47;;;40.90;;
7523;SDS011;3803;51.666;7.630;2023-04-23T02:11:04;67.63;;;40.67;;
7523;SDS011;3803;51.666;7.630;2023-04-23T02:11:25;67.38;;;40.88;;